Friday, November 24, 2017, 12:38 AM EST
Back to Local

KMLT, Millinocket Municipal Airport

Location: Millinocket, ME, United States Lat: 45.65
Local Time: 12:38 AM EST ( 5:38 GMT) Lon: -68.7
Time Zone: US/Eastern Elev: 406 ft

Show me the last for .
Show Decoded

2017-11-24 00:06 METAR KMLT 240506Z AUTO VRB04KT 10SM OVC030 M03/M08 A2986 RMK AO2 T10281078 TSNO
                 =
2017-11-23 23:53 METAR KMLT 240453Z AUTO VRB03KT 10SM OVC029 M03/M08 A2986 RMK AO2 SLP121
                 T10281078 400171050 TSNO =
2017-11-23 22:53 METAR KMLT 240353Z AUTO VRB03KT 10SM OVC110 M04/M08 A2986 RMK AO2 SLP123
                 T10391078 TSNO =
2017-11-23 21:53 METAR KMLT 240253Z AUTO 00000KT 10SM OVC100 M04/M08 A2987 RMK AO2 SLP126
                 T10391078 58012 TSNO =
2017-11-23 20:53 METAR KMLT 240153Z AUTO 26004KT 10SM OVC100 M03/M08 A2988 RMK AO2 SLP131
                 T10331078 TSNO =
2017-11-23 19:53 METAR KMLT 240053Z AUTO VRB06KT 10SM OVC100 M03/M08 A2991 RMK AO2 SLP138
                 T10331083 TSNO =
2017-11-23 18:53 METAR KMLT 232353Z AUTO 26006KT 10SM OVC110 M04/M09 A2991 RMK AO2 SLP138
                 T10391089 11028 21039 56002 TSNO =
2017-11-23 17:53 METAR KMLT 232253Z AUTO VRB05KT 10SM FEW120 M04/M09 A2991 RMK AO2 SLP141
                 T10391089 TSNO =
2017-11-23 16:53 METAR KMLT 232153Z AUTO 28007KT 10SM CLR M04/M10 A2990 RMK AO2 SLP137 T10391100
                 TSNO =
2017-11-23 15:53 METAR KMLT 232053Z AUTO VRB06KT 10SM SCT120 M04/M09 A2991 RMK AO2 SLP140
                 T10391094 55003 TSNO =
2017-11-23 14:53 METAR KMLT 231953Z AUTO 29009G16KT 10SM FEW110 M03/M09 A2989 RMK AO2 SLP132
                 T10331094 TSNO =
2017-11-23 13:53 METAR KMLT 231853Z AUTO 31012G16KT 10SM CLR M03/M09 A2990 RMK AO2 SLP134
                 T10331094 TSNO =
2017-11-23 12:53 METAR KMLT 231753Z AUTO 27007G18KT 240V310 10SM FEW029 M03/M09 A2992 RMK AO2
                 SLP142 T10331094 11028 21050 55003 TSNO =
2017-11-23 11:53 METAR KMLT 231653Z AUTO 30018G22KT 10SM CLR M03/M10 A2989 RMK AO2 SLP131
                 T10331100 TSNO =
2017-11-23 10:53 METAR KMLT 231553Z AUTO 31008G18KT 10SM CLR M03/M09 A2992 RMK AO2 SLP141
                 T10331089 TSNO =
2017-11-23 09:53 METAR KMLT 231453Z AUTO 29011G18KT 10SM FEW026 M04/M09 A2993 RMK AO2 SLP145
                 T10391094 51023 TSNO =
2017-11-23 08:53 METAR KMLT 231353Z AUTO 29015G29KT 10SM CLR M04/M09 A2990 RMK AO2 PK WND
                 30029/1338 SLP134 T10441094 TSNO =
2017-11-23 08:42 METAR KMLT 231342Z AUTO 30019G29KT 10SM SCT020 SCT026 M04/M09 A2990 RMK AO2 PK
                 WND 30029/1338 T10441089 TSNO =
2017-11-23 08:14 METAR KMLT 231314Z AUTO 29008KT 250V340 10SM BKN019 M04/M08 A2991 RMK AO2
                 T10441083 TSNO =
2017-11-23 08:03 METAR KMLT 231303Z AUTO 30009G19KT 10SM SCT019 M04/M08 A2990 RMK AO2 T10441083
                 TSNO =
2017-11-23 07:53 METAR KMLT 231253Z AUTO 31012G23KT 10SM BKN019 M05/M08 A2989 RMK AO2 PK WND
                 31026/1156 SLP132 T10501083 TSNO =
2017-11-23 07:30 METAR KMLT 231230Z AUTO 33009G15KT 260V360 10SM BKN019 M05/M08 A2988 RMK AO2 PK
                 WND 31026/1156 T10501083 TSNO =
2017-11-23 06:53 METAR KMLT 231153Z AUTO 30015G26KT 10SM FEW022 M05/M08 A2986 RMK AO2 PK WND
                 30026/1150 SLP121 60000 70042 T10501083 10017 21050 50014 TSNO =
2017-11-23 06:34 METAR KMLT 231134Z AUTO 30012G22KT 10SM SCT020 M05/M08 A2987 RMK AO2 T10501083
                 TSNO =
2017-11-23 05:53 METAR KMLT 231053Z AUTO 27011G21KT 220V300 10SM BKN018 M04/M08 A2986 RMK AO2 PK
                 WND 30026/1014 SLP122 T10441078 TSNO =
2017-11-23 04:53 METAR KMLT 230953Z AUTO 28012G21KT 10SM OVC015 M03/M06 A2985 RMK AO2 PK WND
                 27027/0855 SLP118 T10331061 TSNO =
2017-11-23 03:53 METAR KMLT 230853Z AUTO 30015G25KT 10SM BKN015 OVC028 M02/M04 A2982 RMK AO2
                 SNE04 SLP107 P0000 60000 T10171039 53023 TSNO =
2017-11-23 02:53 METAR KMLT 230753Z AUTO 30012G19KT 4SM -SN BR SCT012 BKN017 OVC035 00/M01 A2979
                 RMK AO2 SNB49 SLP097 P0000 T00001011 TSNO =
2017-11-23 01:53 METAR KMLT 230653Z AUTO 30011G18KT 10SM BKN038 OVC046 01/M01 A2977 RMK AO2
                 SLP090 T00111011 TSNO =
2017-11-23 01:33 METAR KMLT 230633Z AUTO 31013G19KT 10SM SCT026 BKN037 OVC045 01/M01 A2976 RMK
                 AO2 T00111006 TSNO =
2017-11-23 00:53 METAR KMLT 230553Z AUTO 31011KT 10SM OVC021 02/M01 A2975 RMK AO2 SLP082 60003
                 T00171006 10022 20011 55002 TSNO =

Support USWX by starting your Amazon purchase here.